Mt Sveva — IBEU — position and weather

sailwx.info

Track history (hours):
 
Tides and Currents Weather Stations Pressure Air Temp Water Temp Dewpoint Dewpoint Depression Visibility Wind Speed Wind Dir Waves Ship Positions

Mt Sveva

Last reported at 2014-Oct-21 11:31 UTC. Time now 2014-Oct-21 12:06 UTC.
Position N 39°42' W 075°30'.

Length 136 m; draft 6.7 m.

Type: Tanker. MMSI: 247359000.

Date/timePositionNaut miles runAvg speedWind from/ knotsBaromVisibWave heightAir tempDewpointWater temp
2014-Oct-21 11:31N 39°42' W 075°30'0 0.1
2014-Oct-21 10:31N 39°42' W 075°30'0 0.0
2014-Oct-21 09:31N 39°42' W 075°31'0 0.0
2014-Oct-21 08:31N 39°42' W 075°31'0 0.0
2014-Oct-21 07:31N 39°42' W 075°31'0 0.0
2014-Oct-21 06:31N 39°42' W 075°31'0 0.0
2014-Oct-21 05:31N 39°42' W 075°31'0 0.2
2014-Oct-21 04:31N 39°43' W 075°30'0 0.0
2014-Oct-21 03:31N 39°43' W 075°30'0 0.0
2014-Oct-21 02:31N 39°43' W 075°30'6 5.7
2014-Oct-21 01:33N 39°38' W 075°34'1313.4
2014-Oct-21 00:34N 39°25' W 075°31'  
2014-Oct-18 12:04N 39°00' W 075°14'0 0.1
2014-Oct-18 11:04N 39°01' W 075°14'  
2014-Oct-15 21:10N 39°43' W 075°30'0 0.0
2014-Oct-15 19:25N 39°43' W 075°30'0 0.0
2014-Oct-15 18:07N 39°43' W 075°30'0 0.0
2014-Oct-15 08:25N 39°43' W 075°30'0 0.0
2014-Oct-15 07:25N 39°43' W 075°30'0 0.0
2014-Oct-15 06:25N 39°43' W 075°30'20 3.9
2014-Oct-15 01:20N 39°23' W 075°29'911.9
2014-Oct-15 00:33N 39°16' W 075°21'1312.1
2014-Oct-14 23:28N 39°05' W 075°11'10 8.4
2014-Oct-14 22:18N 38°56' W 075°09'6 1.7
2014-Oct-14 18:32N 39°01' W 075°14'0 0.0
2014-Oct-14 16:26N 39°01' W 075°14'0 0.0
2014-Oct-14 09:08N 39°01' W 075°14'  
Track history (hours):
 
Tides and Currents Weather Stations Pressure Air Temp Water Temp Dewpoint Dewpoint Depression Visibility Wind Speed Wind Dir Waves Ship Positions

Mt Sveva

Last reported at 2014-Oct-21 11:31 UTC. Time now 2014-Oct-21 12:06 UTC.
Position N 39°42' W 075°30'.

Length 136 m; draft 6.7 m.

Type: Tanker. MMSI: 247359000.

Date/timePositionNaut miles runAvg speedWind from/ knotsBaromVisibWave heightAir tempDewpointWater temp
2014-Oct-21 11:31N 39°42' W 075°30'0 0.1
2014-Oct-21 10:31N 39°42' W 075°30'0 0.0
2014-Oct-21 09:31N 39°42' W 075°31'0 0.0
2014-Oct-21 08:31N 39°42' W 075°31'0 0.0
2014-Oct-21 07:31N 39°42' W 075°31'0 0.0
2014-Oct-21 06:31N 39°42' W 075°31'0 0.0
2014-Oct-21 05:31N 39°42' W 075°31'0 0.2
2014-Oct-21 04:31N 39°43' W 075°30'0 0.0
2014-Oct-21 03:31N 39°43' W 075°30'0 0.0
2014-Oct-21 02:31N 39°43' W 075°30'6 5.7
2014-Oct-21 01:33N 39°38' W 075°34'1313.4
2014-Oct-21 00:34N 39°25' W 075°31'  
2014-Oct-18 12:04N 39°00' W 075°14'0 0.1
2014-Oct-18 11:04N 39°01' W 075°14'  
2014-Oct-15 21:10N 39°43' W 075°30'0 0.0
2014-Oct-15 19:25N 39°43' W 075°30'0 0.0
2014-Oct-15 18:07N 39°43' W 075°30'0 0.0
2014-Oct-15 08:25N 39°43' W 075°30'0 0.0
2014-Oct-15 07:25N 39°43' W 075°30'0 0.0
2014-Oct-15 06:25N 39°43' W 075°30'20 3.9
2014-Oct-15 01:20N 39°23' W 075°29'911.9
2014-Oct-15 00:33N 39°16' W 075°21'1312.1
2014-Oct-14 23:28N 39°05' W 075°11'10 8.4
2014-Oct-14 22:18N 38°56' W 075°09'6 1.7
2014-Oct-14 18:32N 39°01' W 075°14'0 0.0
2014-Oct-14 16:26N 39°01' W 075°14'0 0.0
2014-Oct-14 09:08N 39°01' W 075°14'  

Dump ship's entire track history